sensor_id;sensor_type;location;lat;lon;timestamp;P1;durP1;ratioP1;P2;durP2;ratioP2
49502;SDS011;35409;48.776;9.204;2023-06-01T00:01:46;4.68;;;3.10;;
49502;SDS011;35409;48.776;9.204;2023-06-01T00:04:12;6.57;;;3.70;;
49502;SDS011;35409;48.776;9.204;2023-06-01T00:06:38;9.82;;;3.97;;
49502;SDS011;35409;48.776;9.204;2023-06-01T00:09:04;4.53;;;3.03;;
49502;SDS011;35409;48.776;9.204;2023-06-01T00:11:31;6.80;;;3.33;;
49502;SDS011;35409;48.776;9.204;2023-06-01T00:13:57;6.85;;;3.67;;
49502;SDS011;35409;48.776;9.204;2023-06-01T00:16:23;5.88;;;3.60;;
49502;SDS011;35409;48.776;9.204;2023-06-01T00:18:49;4.43;;;2.90;;
49502;SDS011;35409;48.776;9.204;2023-06-01T00:21:21;5.13;;;3.20;;
49502;SDS011;35409;48.776;9.204;2023-06-01T00:23:47;4.75;;;3.10;;
49502;SDS011;35409;48.776;9.204;2023-06-01T00:26:14;8.52;;;3.75;;
49502;SDS011;35409;48.776;9.204;2023-06-01T00:28:40;5.43;;;3.60;;
49502;SDS011;35409;48.776;9.204;2023-06-01T00:31:06;8.20;;;4.40;;
49502;SDS011;35409;48.776;9.204;2023-06-01T00:33:32;6.03;;;3.65;;
49502;SDS011;35409;48.776;9.204;2023-06-01T00:35:57;5.22;;;3.22;;
49502;SDS011;35409;48.776;9.204;2023-06-01T00:38:23;6.43;;;3.42;;
49502;SDS011;35409;48.776;9.204;2023-06-01T00:40:48;8.05;;;3.67;;
49502;SDS011;35409;48.776;9.204;2023-06-01T00:43:17;6.40;;;3.10;;
49502;SDS011;35409;48.776;9.204;2023-06-01T00:45:43;5.15;;;3.33;;
49502;SDS011;35409;48.776;9.204;2023-06-01T00:48:10;6.50;;;3.10;;
49502;SDS011;35409;48.776;9.204;2023-06-01T00:50:37;8.38;;;3.75;;
49502;SDS011;35409;48.776;9.204;2023-06-01T00:53:05;5.20;;;3.15;;
49502;SDS011;35409;48.776;9.204;2023-06-01T00:55:35;6.38;;;3.63;;
49502;SDS011;35409;48.776;9.204;2023-06-01T00:58:00;5.18;;;3.33;;
49502;SDS011;35409;48.776;9.204;2023-06-01T01:00:27;8.23;;;3.97;;
49502;SDS011;35409;48.776;9.204;2023-06-01T01:02:54;7.03;;;3.25;;
49502;SDS011;35409;48.776;9.204;2023-06-01T01:05:22;8.32;;;3.58;;
49502;SDS011;35409;48.776;9.204;2023-06-01T01:13:17;5.28;;;3.33;;
49502;SDS011;35409;48.776;9.204;2023-06-01T01:18:42;7.43;;;3.33;;
49502;SDS011;35409;48.776;9.204;2023-06-01T01:21:19;9.80;;;3.20;;
49502;SDS011;35409;48.776;9.204;2023-06-01T01:29:51;5.45;;;3.42;;
49502;SDS011;35409;48.776;9.204;2023-06-01T01:32:19;6.35;;;3.30;;
49502;SDS011;35409;48.776;9.204;2023-06-01T01:34:48;7.10;;;3.25;;
49502;SDS011;35409;48.776;9.204;2023-06-01T01:37:16;5.50;;;3.20;;
49502;SDS011;35409;48.776;9.204;2023-06-01T01:39:42;6.47;;;3.13;;
49502;SDS011;35409;48.776;9.204;2023-06-01T01:42:07;5.18;;;2.88;;
49502;SDS011;35409;48.776;9.204;2023-06-01T01:44:33;6.80;;;3.20;;
49502;SDS011;35409;48.776;9.204;2023-06-01T01:47:04;6.78;;;2.88;;
49502;SDS011;35409;48.776;9.204;2023-06-01T01:49:36;4.78;;;2.83;;
49502;SDS011;35409;48.776;9.204;2023-06-01T01:52:15;5.20;;;3.00;;
49502;SDS011;35409;48.776;9.204;2023-06-01T01:54:50;7.25;;;3.20;;
49502;SDS011;35409;48.776;9.204;2023-06-01T01:57:17;5.55;;;3.00;;
49502;SDS011;35409;48.776;9.204;2023-06-01T01:59:43;7.35;;;3.80;;
49502;SDS011;35409;48.776;9.204;2023-06-01T02:02:12;6.63;;;3.03;;
49502;SDS011;35409;48.776;9.204;2023-06-01T02:04:42;6.30;;;2.97;;
49502;SDS011;35409;48.776;9.204;2023-06-01T02:07:09;8.40;;;3.28;;
49502;SDS011;35409;48.776;9.204;2023-06-01T02:09:35;5.30;;;2.65;;
49502;SDS011;35409;48.776;9.204;2023-06-01T02:12:01;5.30;;;3.00;;
49502;SDS011;35409;48.776;9.204;2023-06-01T02:14:27;9.57;;;3.10;;
49502;SDS011;35409;48.776;9.204;2023-06-01T02:16:53;5.10;;;3.15;;
49502;SDS011;35409;48.776;9.204;2023-06-01T02:19:19;4.47;;;3.13;;
49502;SDS011;35409;48.776;9.204;2023-06-01T02:21:45;7.40;;;2.92;;
49502;SDS011;35409;48.776;9.204;2023-06-01T02:24:11;4.85;;;2.85;;
49502;SDS011;35409;48.776;9.204;2023-06-01T02:26:37;5.00;;;2.50;;
49502;SDS011;35409;48.776;9.204;2023-06-01T02:29:03;6.35;;;3.03;;
49502;SDS011;35409;48.776;9.204;2023-06-01T02:31:30;8.60;;;2.92;;
49502;SDS011;35409;48.776;9.204;2023-06-01T02:33:57;7.50;;;3.22;;
49502;SDS011;35409;48.776;9.204;2023-06-01T02:36:23;5.28;;;3.00;;
49502;SDS011;35409;48.776;9.204;2023-06-01T02:38:50;10.30;;;3.78;;
49502;SDS011;35409;48.776;9.204;2023-06-01T02:41:16;8.30;;;3.38;;
49502;SDS011;35409;48.776;9.204;2023-06-01T02:43:41;6.20;;;3.33;;
49502;SDS011;35409;48.776;9.204;2023-06-01T02:46:07;8.13;;;3.00;;
49502;SDS011;35409;48.776;9.204;2023-06-01T02:48:32;6.75;;;3.13;;
49502;SDS011;35409;48.776;9.204;2023-06-01T02:50:58;7.85;;;2.88;;
49502;SDS011;35409;48.776;9.204;2023-06-01T02:53:23;7.95;;;3.20;;
49502;SDS011;35409;48.776;9.204;2023-06-01T02:55:52;8.02;;;3.05;;
49502;SDS011;35409;48.776;9.204;2023-06-01T02:58:17;10.80;;;3.15;;
49502;SDS011;35409;48.776;9.204;2023-06-01T03:00:43;5.95;;;3.03;;
49502;SDS011;35409;48.776;9.204;2023-06-01T03:03:09;5.68;;;3.40;;
49502;SDS011;35409;48.776;9.204;2023-06-01T03:05:35;8.80;;;3.25;;
49502;SDS011;35409;48.776;9.204;2023-06-01T03:08:01;6.18;;;3.05;;
49502;SDS011;35409;48.776;9.204;2023-06-01T03:10:27;7.32;;;3.58;;
49502;SDS011;35409;48.776;9.204;2023-06-01T03:12:53;9.52;;;3.50;;
49502;SDS011;35409;48.776;9.204;2023-06-01T03:15:19;6.38;;;3.20;;
49502;SDS011;35409;48.776;9.204;2023-06-01T03:17:44;5.65;;;3.15;;
49502;SDS011;35409;48.776;9.204;2023-06-01T03:20:10;6.03;;;3.03;;
49502;SDS011;35409;48.776;9.204;2023-06-01T03:22:45;6.20;;;2.93;;
49502;SDS011;35409;48.776;9.204;2023-06-01T03:25:11;3.95;;;2.75;;
49502;SDS011;35409;48.776;9.204;2023-06-01T03:27:40;6.38;;;3.10;;
49502;SDS011;35409;48.776;9.204;2023-06-01T03:30:06;6.60;;;3.20;;
49502;SDS011;35409;48.776;9.204;2023-06-01T03:32:42;6.20;;;2.97;;
49502;SDS011;35409;48.776;9.204;2023-06-01T03:35:09;7.47;;;2.83;;
49502;SDS011;35409;48.776;9.204;2023-06-01T03:37:36;6.80;;;3.20;;
49502;SDS011;35409;48.776;9.204;2023-06-01T03:40:03;5.65;;;3.10;;
49502;SDS011;35409;48.776;9.204;2023-06-01T03:42:39;6.25;;;2.95;;
49502;SDS011;35409;48.776;9.204;2023-06-01T03:45:06;6.00;;;3.38;;
49502;SDS011;35409;48.776;9.204;2023-06-01T03:47:33;7.43;;;2.80;;
49502;SDS011;35409;48.776;9.204;2023-06-01T03:49:59;6.65;;;3.25;;
49502;SDS011;35409;48.776;9.204;2023-06-01T03:52:28;6.43;;;3.08;;
49502;SDS011;35409;48.776;9.204;2023-06-01T03:54:55;6.07;;;3.20;;
49502;SDS011;35409;48.776;9.204;2023-06-01T03:57:21;7.53;;;2.88;;
49502;SDS011;35409;48.776;9.204;2023-06-01T03:59:47;5.45;;;3.13;;
49502;SDS011;35409;48.776;9.204;2023-06-01T04:02:13;5.00;;;3.15;;
49502;SDS011;35409;48.776;9.204;2023-06-01T04:04:39;6.10;;;3.00;;
49502;SDS011;35409;48.776;9.204;2023-06-01T04:07:05;6.57;;;2.70;;
49502;SDS011;35409;48.776;9.204;2023-06-01T04:09:32;5.22;;;2.53;;
49502;SDS011;35409;48.776;9.204;2023-06-01T04:11:57;4.95;;;2.72;;
49502;SDS011;35409;48.776;9.204;2023-06-01T04:14:23;5.93;;;3.30;;
49502;SDS011;35409;48.776;9.204;2023-06-01T04:16:48;5.15;;;2.80;;
49502;SDS011;35409;48.776;9.204;2023-06-01T04:19:14;5.25;;;2.90;;
49502;SDS011;35409;48.776;9.204;2023-06-01T04:21:40;5.82;;;2.80;;
49502;SDS011;35409;48.776;9.204;2023-06-01T04:24:06;6.50;;;2.75;;
49502;SDS011;35409;48.776;9.204;2023-06-01T04:26:31;6.05;;;3.10;;
49502;SDS011;35409;48.776;9.204;2023-06-01T04:28:58;5.28;;;2.75;;
49502;SDS011;35409;48.776;9.204;2023-06-01T04:31:23;5.90;;;2.95;;
49502;SDS011;35409;48.776;9.204;2023-06-01T04:33:50;5.53;;;2.92;;
49502;SDS011;35409;48.776;9.204;2023-06-01T04:36:22;5.07;;;2.70;;
49502;SDS011;35409;48.776;9.204;2023-06-01T04:38:50;6.07;;;3.08;;
49502;SDS011;35409;48.776;9.204;2023-06-01T04:41:19;6.72;;;4.00;;
49502;SDS011;35409;48.776;9.204;2023-06-01T04:43:46;9.85;;;3.50;;
49502;SDS011;35409;48.776;9.204;2023-06-01T04:46:20;8.48;;;3.47;;
49502;SDS011;35409;48.776;9.204;2023-06-01T04:48:48;6.10;;;3.30;;
49502;SDS011;35409;48.776;9.204;2023-06-01T04:51:16;6.18;;;2.75;;
49502;SDS011;35409;48.776;9.204;2023-06-01T04:53:43;4.97;;;3.40;;
49502;SDS011;35409;48.776;9.204;2023-06-01T04:56:10;5.30;;;3.17;;
49502;SDS011;35409;48.776;9.204;2023-06-01T04:58:35;4.40;;;2.95;;
49502;SDS011;35409;48.776;9.204;2023-06-01T05:01:01;7.30;;;3.00;;
49502;SDS011;35409;48.776;9.204;2023-06-01T05:03:26;5.10;;;3.00;;
49502;SDS011;35409;48.776;9.204;2023-06-01T05:05:52;4.90;;;3.10;;
49502;SDS011;35409;48.776;9.204;2023-06-01T05:08:17;8.90;;;3.70;;
49502;SDS011;35409;48.776;9.204;2023-06-01T05:10:43;6.47;;;3.45;;
49502;SDS011;35409;48.776;9.204;2023-06-01T05:13:08;7.32;;;3.60;;
49502;SDS011;35409;48.776;9.204;2023-06-01T05:15:34;6.80;;;3.30;;
49502;SDS011;35409;48.776;9.204;2023-06-01T05:17:59;8.88;;;3.50;;
49502;SDS011;35409;48.776;9.204;2023-06-01T05:20:25;10.82;;;4.38;;
49502;SDS011;35409;48.776;9.204;2023-06-01T05:22:51;9.63;;;4.18;;
49502;SDS011;35409;48.776;9.204;2023-06-01T05:25:17;6.57;;;3.40;;
49502;SDS011;35409;48.776;9.204;2023-06-01T05:27:42;7.70;;;3.88;;
49502;SDS011;35409;48.776;9.204;2023-06-01T05:30:08;8.80;;;3.70;;
49502;SDS011;35409;48.776;9.204;2023-06-01T05:32:34;8.88;;;4.10;;
49502;SDS011;35409;48.776;9.204;2023-06-01T05:34:59;9.10;;;4.55;;
49502;SDS011;35409;48.776;9.204;2023-06-01T05:37:25;9.95;;;4.60;;
49502;SDS011;35409;48.776;9.204;2023-06-01T05:39:51;8.43;;;3.97;;
49502;SDS011;35409;48.776;9.204;2023-06-01T05:42:16;6.97;;;3.97;;
49502;SDS011;35409;48.776;9.204;2023-06-01T05:44:42;10.05;;;3.95;;
49502;SDS011;35409;48.776;9.204;2023-06-01T05:47:08;9.40;;;4.05;;
49502;SDS011;35409;48.776;9.204;2023-06-01T05:49:34;13.85;;;5.00;;
49502;SDS011;35409;48.776;9.204;2023-06-01T05:52:00;8.60;;;3.95;;
49502;SDS011;35409;48.776;9.204;2023-06-01T05:54:26;10.27;;;4.10;;
49502;SDS011;35409;48.776;9.204;2023-06-01T05:56:51;7.70;;;3.78;;
49502;SDS011;35409;48.776;9.204;2023-06-01T05:59:17;7.63;;;3.95;;
49502;SDS011;35409;48.776;9.204;2023-06-01T06:01:43;6.63;;;3.80;;
49502;SDS011;35409;48.776;9.204;2023-06-01T06:04:09;9.77;;;3.47;;
49502;SDS011;35409;48.776;9.204;2023-06-01T06:06:35;9.27;;;3.10;;
49502;SDS011;35409;48.776;9.204;2023-06-01T06:09:01;9.63;;;2.92;;
49502;SDS011;35409;48.776;9.204;2023-06-01T06:11:27;7.05;;;3.58;;
49502;SDS011;35409;48.776;9.204;2023-06-01T06:13:53;7.35;;;3.47;;
49502;SDS011;35409;48.776;9.204;2023-06-01T06:16:18;9.98;;;3.58;;
49502;SDS011;35409;48.776;9.204;2023-06-01T06:18:44;9.18;;;3.25;;
49502;SDS011;35409;48.776;9.204;2023-06-01T06:21:10;9.60;;;3.30;;
49502;SDS011;35409;48.776;9.204;2023-06-01T06:23:35;5.60;;;3.10;;
49502;SDS011;35409;48.776;9.204;2023-06-01T06:26:02;7.30;;;3.80;;
49502;SDS011;35409;48.776;9.204;2023-06-01T06:28:27;8.75;;;4.07;;
49502;SDS011;35409;48.776;9.204;2023-06-01T06:30:53;6.22;;;4.07;;
49502;SDS011;35409;48.776;9.204;2023-06-01T06:33:19;6.22;;;3.33;;
49502;SDS011;35409;48.776;9.204;2023-06-01T06:35:45;9.95;;;3.83;;
49502;SDS011;35409;48.776;9.204;2023-06-01T06:38:11;10.15;;;4.25;;
49502;SDS011;35409;48.776;9.204;2023-06-01T06:40:38;8.52;;;4.15;;
49502;SDS011;35409;48.776;9.204;2023-06-01T06:43:03;8.68;;;4.40;;
49502;SDS011;35409;48.776;9.204;2023-06-01T06:45:29;7.65;;;3.90;;
49502;SDS011;35409;48.776;9.204;2023-06-01T06:47:54;7.55;;;3.88;;
49502;SDS011;35409;48.776;9.204;2023-06-01T06:50:20;10.50;;;4.32;;
49502;SDS011;35409;48.776;9.204;2023-06-01T06:52:46;11.95;;;4.65;;
49502;SDS011;35409;48.776;9.204;2023-06-01T06:55:11;8.20;;;4.38;;
49502;SDS011;35409;48.776;9.204;2023-06-01T06:57:37;11.48;;;4.13;;
49502;SDS011;35409;48.776;9.204;2023-06-01T07:00:05;7.43;;;3.70;;
49502;SDS011;35409;48.776;9.204;2023-06-01T07:02:32;8.68;;;3.75;;
49502;SDS011;35409;48.776;9.204;2023-06-01T07:04:57;9.20;;;3.72;;
49502;SDS011;35409;48.776;9.204;2023-06-01T07:07:23;5.35;;;3.25;;
49502;SDS011;35409;48.776;9.204;2023-06-01T07:09:48;11.30;;;4.05;;
49502;SDS011;35409;48.776;9.204;2023-06-01T07:12:14;9.55;;;3.65;;
49502;SDS011;35409;48.776;9.204;2023-06-01T07:14:40;10.48;;;3.50;;
49502;SDS011;35409;48.776;9.204;2023-06-01T07:17:06;6.38;;;3.33;;
49502;SDS011;35409;48.776;9.204;2023-06-01T07:19:31;8.45;;;3.85;;
49502;SDS011;35409;48.776;9.204;2023-06-01T07:22:00;9.57;;;4.45;;
49502;SDS011;35409;48.776;9.204;2023-06-01T07:24:26;7.75;;;3.80;;
49502;SDS011;35409;48.776;9.204;2023-06-01T07:26:52;9.75;;;4.03;;
49502;SDS011;35409;48.776;9.204;2023-06-01T07:29:18;10.73;;;4.20;;
49502;SDS011;35409;48.776;9.204;2023-06-01T07:31:45;8.95;;;4.20;;
49502;SDS011;35409;48.776;9.204;2023-06-01T07:34:11;8.98;;;4.05;;
49502;SDS011;35409;48.776;9.204;2023-06-01T07:36:37;7.93;;;3.83;;
49502;SDS011;35409;48.776;9.204;2023-06-01T07:39:03;8.20;;;4.35;;
49502;SDS011;35409;48.776;9.204;2023-06-01T07:41:33;11.20;;;3.50;;
49502;SDS011;35409;48.776;9.204;2023-06-01T07:43:59;8.88;;;4.00;;
49502;SDS011;35409;48.776;9.204;2023-06-01T07:46:25;11.38;;;4.22;;
49502;SDS011;35409;48.776;9.204;2023-06-01T07:48:50;8.73;;;4.28;;
49502;SDS011;35409;48.776;9.204;2023-06-01T07:51:16;10.23;;;4.32;;
49502;SDS011;35409;48.776;9.204;2023-06-01T07:53:42;8.75;;;3.70;;
49502;SDS011;35409;48.776;9.204;2023-06-01T07:56:08;7.72;;;3.90;;
49502;SDS011;35409;48.776;9.204;2023-06-01T07:58:34;5.88;;;3.53;;
49502;SDS011;35409;48.776;9.204;2023-06-01T08:01:00;9.18;;;4.05;;
49502;SDS011;35409;48.776;9.204;2023-06-01T08:03:26;6.72;;;4.15;;
49502;SDS011;35409;48.776;9.204;2023-06-01T08:05:52;10.93;;;3.83;;
49502;SDS011;35409;48.776;9.204;2023-06-01T08:08:22;8.35;;;3.97;;
49502;SDS011;35409;48.776;9.204;2023-06-01T08:10:49;10.55;;;4.15;;
49502;SDS011;35409;48.776;9.204;2023-06-01T08:13:15;8.73;;;3.90;;
49502;SDS011;35409;48.776;9.204;2023-06-01T08:15:40;7.85;;;3.70;;
49502;SDS011;35409;48.776;9.204;2023-06-01T08:18:07;10.82;;;4.53;;
49502;SDS011;35409;48.776;9.204;2023-06-01T08:20:33;7.40;;;4.10;;
49502;SDS011;35409;48.776;9.204;2023-06-01T08:23:00;8.80;;;4.22;;
49502;SDS011;35409;48.776;9.204;2023-06-01T08:25:27;10.88;;;4.00;;
49502;SDS011;35409;48.776;9.204;2023-06-01T08:27:53;9.65;;;4.07;;
49502;SDS011;35409;48.776;9.204;2023-06-01T08:30:19;7.28;;;4.35;;
49502;SDS011;35409;48.776;9.204;2023-06-01T08:32:45;11.35;;;4.82;;
49502;SDS011;35409;48.776;9.204;2023-06-01T08:35:10;9.27;;;4.63;;
49502;SDS011;35409;48.776;9.204;2023-06-01T08:37:36;9.20;;;3.92;;
49502;SDS011;35409;48.776;9.204;2023-06-01T08:40:02;11.55;;;4.32;;
49502;SDS011;35409;48.776;9.204;2023-06-01T08:42:34;11.73;;;4.93;;
49502;SDS011;35409;48.776;9.204;2023-06-01T08:45:09;7.73;;;4.67;;
49502;SDS011;35409;48.776;9.204;2023-06-01T08:47:36;8.77;;;4.82;;
49502;SDS011;35409;48.776;9.204;2023-06-01T08:50:03;7.55;;;4.50;;
49502;SDS011;35409;48.776;9.204;2023-06-01T08:52:29;9.63;;;4.53;;
49502;SDS011;35409;48.776;9.204;2023-06-01T08:54:58;9.48;;;4.35;;
49502;SDS011;35409;48.776;9.204;2023-06-01T08:57:24;7.47;;;4.28;;
49502;SDS011;35409;48.776;9.204;2023-06-01T08:59:50;7.40;;;4.65;;
49502;SDS011;35409;48.776;9.204;2023-06-01T09:02:16;23.42;;;5.00;;
49502;SDS011;35409;48.776;9.204;2023-06-01T09:04:42;27.52;;;4.85;;
49502;SDS011;35409;48.776;9.204;2023-06-01T09:07:10;8.63;;;4.80;;
49502;SDS011;35409;48.776;9.204;2023-06-01T09:09:38;7.43;;;4.80;;
49502;SDS011;35409;48.776;9.204;2023-06-01T09:12:17;12.88;;;4.45;;
49502;SDS011;35409;48.776;9.204;2023-06-01T09:14:45;61.50;;;7.30;;
49502;SDS011;35409;48.776;9.204;2023-06-01T09:17:14;10.75;;;4.53;;
49502;SDS011;35409;48.776;9.204;2023-06-01T09:19:47;11.38;;;4.68;;
49502;SDS011;35409;48.776;9.204;2023-06-01T09:22:14;8.20;;;4.28;;
49502;SDS011;35409;48.776;9.204;2023-06-01T09:24:40;9.07;;;4.90;;
49502;SDS011;35409;48.776;9.204;2023-06-01T09:27:19;9.52;;;4.78;;
49502;SDS011;35409;48.776;9.204;2023-06-01T09:29:52;8.32;;;4.50;;
49502;SDS011;35409;48.776;9.204;2023-06-01T09:32:18;9.32;;;4.90;;
49502;SDS011;35409;48.776;9.204;2023-06-01T09:34:46;12.18;;;5.03;;
49502;SDS011;35409;48.776;9.204;2023-06-01T09:37:11;18.65;;;5.00;;
49502;SDS011;35409;48.776;9.204;2023-06-01T09:39:38;11.95;;;5.03;;
49502;SDS011;35409;48.776;9.204;2023-06-01T09:42:04;8.38;;;5.22;;
49502;SDS011;35409;48.776;9.204;2023-06-01T09:47:10;11.40;;;5.13;;
49502;SDS011;35409;48.776;9.204;2023-06-01T09:49:39;10.32;;;4.43;;
49502;SDS011;35409;48.776;9.204;2023-06-01T09:54:32;10.70;;;4.70;;
49502;SDS011;35409;48.776;9.204;2023-06-01T09:57:11;57.40;;;7.22;;
49502;SDS011;35409;48.776;9.204;2023-06-01T09:59:44;10.70;;;5.22;;
49502;SDS011;35409;48.776;9.204;2023-06-01T10:02:11;11.73;;;5.07;;
49502;SDS011;35409;48.776;9.204;2023-06-01T10:04:45;155.25;;;10.55;;
49502;SDS011;35409;48.776;9.204;2023-06-01T10:07:19;11.80;;;5.22;;
49502;SDS011;35409;48.776;9.204;2023-06-01T10:09:47;15.13;;;4.55;;
49502;SDS011;35409;48.776;9.204;2023-06-01T10:12:16;10.23;;;5.15;;
49502;SDS011;35409;48.776;9.204;2023-06-01T10:14:41;10.68;;;4.93;;
49502;SDS011;35409;48.776;9.204;2023-06-01T10:17:07;9.32;;;4.63;;
49502;SDS011;35409;48.776;9.204;2023-06-01T10:19:35;8.88;;;4.53;;
49502;SDS011;35409;48.776;9.204;2023-06-01T10:22:05;11.00;;;4.50;;
49502;SDS011;35409;48.776;9.204;2023-06-01T10:24:31;10.38;;;4.80;;
49502;SDS011;35409;48.776;9.204;2023-06-01T10:29:34;10.23;;;4.88;;
49502;SDS011;35409;48.776;9.204;2023-06-01T10:32:00;10.02;;;4.20;;
49502;SDS011;35409;48.776;9.204;2023-06-01T10:34:43;9.10;;;4.85;;
49502;SDS011;35409;48.776;9.204;2023-06-01T10:37:10;8.90;;;4.93;;
49502;SDS011;35409;48.776;9.204;2023-06-01T10:39:39;7.10;;;4.68;;
49502;SDS011;35409;48.776;9.204;2023-06-01T10:47:05;10.43;;;4.60;;
49502;SDS011;35409;48.776;9.204;2023-06-01T10:55:18;12.43;;;4.63;;
49502;SDS011;35409;48.776;9.204;2023-06-01T10:57:46;13.32;;;5.07;;
49502;SDS011;35409;48.776;9.204;2023-06-01T11:00:21;10.80;;;4.97;;
49502;SDS011;35409;48.776;9.204;2023-06-01T11:03:04;9.23;;;4.85;;
49502;SDS011;35409;48.776;9.204;2023-06-01T11:08:54;9.90;;;4.82;;
49502;SDS011;35409;48.776;9.204;2023-06-01T11:10:58;8.60;;;4.68;;
49502;SDS011;35409;48.776;9.204;2023-06-01T11:18:46;10.55;;;4.80;;
49502;SDS011;35409;48.776;9.204;2023-06-01T11:21:23;9.85;;;4.85;;
49502;SDS011;35409;48.776;9.204;2023-06-01T11:23:51;9.30;;;4.70;;
49502;SDS011;35409;48.776;9.204;2023-06-01T11:26:19;7.57;;;4.90;;
49502;SDS011;35409;48.776;9.204;2023-06-01T11:28:50;7.47;;;4.65;;
49502;SDS011;35409;48.776;9.204;2023-06-01T11:31:18;10.55;;;4.57;;
49502;SDS011;35409;48.776;9.204;2023-06-01T11:33:53;8.55;;;5.03;;
49502;SDS011;35409;48.776;9.204;2023-06-01T11:36:24;7.80;;;5.35;;
49502;SDS011;35409;48.776;9.204;2023-06-01T11:38:52;10.30;;;4.82;;
49502;SDS011;35409;48.776;9.204;2023-06-01T11:41:19;10.32;;;4.82;;
49502;SDS011;35409;48.776;9.204;2023-06-01T11:43:54;10.88;;;5.05;;
49502;SDS011;35409;48.776;9.204;2023-06-01T11:46:21;9.20;;;4.82;;
49502;SDS011;35409;48.776;9.204;2023-06-01T11:49:00;9.93;;;4.95;;
49502;SDS011;35409;48.776;9.204;2023-06-01T11:51:30;12.63;;;5.00;;
49502;SDS011;35409;48.776;9.204;2023-06-01T11:54:03;6.20;;;4.82;;
49502;SDS011;35409;48.776;9.204;2023-06-01T11:56:29;6.63;;;4.43;;
49502;SDS011;35409;48.776;9.204;2023-06-01T11:58:59;12.02;;;4.90;;
49502;SDS011;35409;48.776;9.204;2023-06-01T12:01:25;6.05;;;4.78;;
49502;SDS011;35409;48.776;9.204;2023-06-01T12:03:52;7.43;;;4.47;;
49502;SDS011;35409;48.776;9.204;2023-06-01T12:06:19;8.32;;;4.22;;
49502;SDS011;35409;48.776;9.204;2023-06-01T12:08:49;12.68;;;5.00;;
49502;SDS011;35409;48.776;9.204;2023-06-01T12:11:19;8.75;;;4.03;;
49502;SDS011;35409;48.776;9.204;2023-06-01T12:13:55;5.85;;;4.35;;
49502;SDS011;35409;48.776;9.204;2023-06-01T12:18:50;8.60;;;4.80;;
49502;SDS011;35409;48.776;9.204;2023-06-01T12:21:16;6.55;;;4.75;;
49502;SDS011;35409;48.776;9.204;2023-06-01T12:23:42;7.78;;;4.40;;
49502;SDS011;35409;48.776;9.204;2023-06-01T12:26:14;8.73;;;4.43;;
49502;SDS011;35409;48.776;9.204;2023-06-01T12:28:46;6.07;;;4.30;;
49502;SDS011;35409;48.776;9.204;2023-06-01T12:31:18;11.90;;;4.80;;
49502;SDS011;35409;48.776;9.204;2023-06-01T12:33:44;18.90;;;4.90;;
49502;SDS011;35409;48.776;9.204;2023-06-01T12:36:11;7.75;;;4.47;;
49502;SDS011;35409;48.776;9.204;2023-06-01T12:38:58;8.30;;;4.18;;
49502;SDS011;35409;48.776;9.204;2023-06-01T12:41:24;5.47;;;4.10;;
49502;SDS011;35409;48.776;9.204;2023-06-01T12:43:50;7.60;;;4.20;;
49502;SDS011;35409;48.776;9.204;2023-06-01T12:49:11;8.07;;;4.40;;
49502;SDS011;35409;48.776;9.204;2023-06-01T12:51:38;7.13;;;4.85;;
49502;SDS011;35409;48.776;9.204;2023-06-01T12:54:04;9.15;;;4.85;;
49502;SDS011;35409;48.776;9.204;2023-06-01T12:56:30;8.40;;;4.60;;
49502;SDS011;35409;48.776;9.204;2023-06-01T12:58:55;9.82;;;4.40;;
49502;SDS011;35409;48.776;9.204;2023-06-01T13:01:21;7.85;;;4.20;;
49502;SDS011;35409;48.776;9.204;2023-06-01T13:03:47;7.95;;;4.97;;
49502;SDS011;35409;48.776;9.204;2023-06-01T13:06:15;5.18;;;4.10;;
49502;SDS011;35409;48.776;9.204;2023-06-01T13:08:42;7.60;;;4.45;;
49502;SDS011;35409;48.776;9.204;2023-06-01T13:11:07;6.70;;;4.30;;
49502;SDS011;35409;48.776;9.204;2023-06-01T13:13:33;5.85;;;4.07;;
49502;SDS011;35409;48.776;9.204;2023-06-01T13:15:59;7.20;;;4.53;;
49502;SDS011;35409;48.776;9.204;2023-06-01T13:18:25;9.65;;;3.72;;
49502;SDS011;35409;48.776;9.204;2023-06-01T13:20:51;5.72;;;4.30;;
49502;SDS011;35409;48.776;9.204;2023-06-01T13:23:17;5.35;;;4.35;;
49502;SDS011;35409;48.776;9.204;2023-06-01T13:25:43;11.82;;;4.43;;
49502;SDS011;35409;48.776;9.204;2023-06-01T13:28:09;15.18;;;4.70;;
49502;SDS011;35409;48.776;9.204;2023-06-01T13:30:35;7.85;;;4.57;;
49502;SDS011;35409;48.776;9.204;2023-06-01T13:33:01;6.85;;;4.45;;
49502;SDS011;35409;48.776;9.204;2023-06-01T13:35:27;5.07;;;4.57;;
49502;SDS011;35409;48.776;9.204;2023-06-01T13:37:52;6.75;;;4.53;;
49502;SDS011;35409;48.776;9.204;2023-06-01T13:40:18;6.45;;;4.75;;
49502;SDS011;35409;48.776;9.204;2023-06-01T13:42:48;7.93;;;4.60;;
49502;SDS011;35409;48.776;9.204;2023-06-01T13:45:14;8.90;;;4.22;;
49502;SDS011;35409;48.776;9.204;2023-06-01T13:47:40;7.38;;;4.53;;
49502;SDS011;35409;48.776;9.204;2023-06-01T13:50:06;7.78;;;4.60;;
49502;SDS011;35409;48.776;9.204;2023-06-01T13:52:33;5.15;;;3.75;;
49502;SDS011;35409;48.776;9.204;2023-06-01T13:54:58;8.27;;;4.18;;
49502;SDS011;35409;48.776;9.204;2023-06-01T13:57:24;6.20;;;4.38;;
49502;SDS011;35409;48.776;9.204;2023-06-01T13:59:49;7.05;;;4.03;;
49502;SDS011;35409;48.776;9.204;2023-06-01T14:02:15;7.45;;;4.10;;
49502;SDS011;35409;48.776;9.204;2023-06-01T14:04:41;7.15;;;3.55;;
49502;SDS011;35409;48.776;9.204;2023-06-01T14:07:06;4.75;;;3.58;;
49502;SDS011;35409;48.776;9.204;2023-06-01T14:09:32;6.00;;;3.55;;
49502;SDS011;35409;48.776;9.204;2023-06-01T14:11:57;4.57;;;3.40;;
49502;SDS011;35409;48.776;9.204;2023-06-01T14:14:23;5.15;;;3.60;;
49502;SDS011;35409;48.776;9.204;2023-06-01T14:16:48;6.72;;;3.17;;
49502;SDS011;35409;48.776;9.204;2023-06-01T14:19:14;8.82;;;3.42;;
49502;SDS011;35409;48.776;9.204;2023-06-01T14:21:40;6.78;;;4.15;;
49502;SDS011;35409;48.776;9.204;2023-06-01T14:24:06;10.25;;;3.22;;
49502;SDS011;35409;48.776;9.204;2023-06-01T14:26:32;5.85;;;3.13;;
49502;SDS011;35409;48.776;9.204;2023-06-01T14:28:57;4.50;;;3.05;;
49502;SDS011;35409;48.776;9.204;2023-06-01T14:31:23;7.18;;;3.30;;
49502;SDS011;35409;48.776;9.204;2023-06-01T14:33:48;8.25;;;3.70;;
49502;SDS011;35409;48.776;9.204;2023-06-01T14:36:14;6.50;;;3.60;;
49502;SDS011;35409;48.776;9.204;2023-06-01T14:38:40;4.13;;;3.28;;
49502;SDS011;35409;48.776;9.204;2023-06-01T14:41:06;5.00;;;3.33;;
49502;SDS011;35409;48.776;9.204;2023-06-01T14:43:32;6.05;;;3.40;;
49502;SDS011;35409;48.776;9.204;2023-06-01T14:45:58;5.13;;;3.58;;
49502;SDS011;35409;48.776;9.204;2023-06-01T14:48:23;7.05;;;3.90;;
49502;SDS011;35409;48.776;9.204;2023-06-01T14:50:49;8.20;;;3.45;;
49502;SDS011;35409;48.776;9.204;2023-06-01T14:53:15;7.45;;;3.30;;
49502;SDS011;35409;48.776;9.204;2023-06-01T14:55:41;5.55;;;3.15;;
49502;SDS011;35409;48.776;9.204;2023-06-01T14:58:10;5.22;;;3.22;;
49502;SDS011;35409;48.776;9.204;2023-06-01T15:00:36;4.80;;;3.30;;
49502;SDS011;35409;48.776;9.204;2023-06-01T15:03:03;5.93;;;3.33;;
49502;SDS011;35409;48.776;9.204;2023-06-01T15:05:29;4.95;;;3.13;;
49502;SDS011;35409;48.776;9.204;2023-06-01T15:07:54;7.70;;;3.35;;
49502;SDS011;35409;48.776;9.204;2023-06-01T15:10:20;4.75;;;2.95;;
49502;SDS011;35409;48.776;9.204;2023-06-01T15:12:46;5.55;;;3.28;;
49502;SDS011;35409;48.776;9.204;2023-06-01T15:15:12;4.70;;;3.28;;
49502;SDS011;35409;48.776;9.204;2023-06-01T15:17:38;6.03;;;3.28;;
49502;SDS011;35409;48.776;9.204;2023-06-01T15:20:04;6.50;;;3.13;;
49502;SDS011;35409;48.776;9.204;2023-06-01T15:22:31;6.32;;;3.53;;
49502;SDS011;35409;48.776;9.204;2023-06-01T15:24:56;4.15;;;3.50;;
49502;SDS011;35409;48.776;9.204;2023-06-01T15:27:22;5.18;;;3.10;;
49502;SDS011;35409;48.776;9.204;2023-06-01T15:29:48;3.95;;;3.03;;
49502;SDS011;35409;48.776;9.204;2023-06-01T15:32:14;8.25;;;3.13;;